TAF Text Data
IDs:
Format:
Raw Decoded Include METAR

Data at: 0142 UTC 24 May 2019

KTYS 240053Z 21004KT 10SM FEW180 28/18 A3013 RMK AO2 SLP191 T02780183

KTYS 232329Z 2400/2424 VRB03KT P6SM SCT250

KGSO 240054Z 22007KT 10SM BKN250 25/22 A3012 RMK AO2 SLP189 T02500222

KGSO 232320Z 2400/2424 24007KT P6SM FEW035 SCT100 SCT250
  FM241600 31011G18KT P6SM SCT050 SCT250
  FM242100 31009KT P6SM SCT250


KCLT 240052Z 21004KT 10SM FEW120 BKN250 26/21 A3014 RMK AO2 SLP199 T02560211

KCLT 232333Z 2400/2506 23005KT P6SM FEW040 SCT250
  FM241300 26005KT P6SM FEW250
  FM241600 29008KT P6SM FEW050
  FM250100 33005KT P6SM FEW240


KRDU 240051Z 25005KT 10SM BKN250 24/21 A3010 RMK AO2 SLP188 T02440206

KRDU 232320Z 2400/2424 24007KT P6SM FEW035 SCT250
  FM241600 31011G18KT P6SM SCT050 SCT250
  FM242000 31007KT P6SM SCT250


KPOB 240056Z AUTO 26004KT 10SM CLR 27/20 A3011 RMK AO2 SLP197 T02670200 $

TAF KPOB 240100Z 2401/2507 21006KT 9999 SCT250 QNH3010INS
  BECMG 2405/2406 23006KT 9999 FEW020 SCT250 510103 QNH3013INS
  BECMG 2413/2414 29010G15KT 9999 FEW060 QNH3010INS
  BECMG 2423/2424 VRB03KT 9999 FEW050 QNH3005INS TX34/2420Z TN21/2411Z


KFBG 240056Z AUTO 00000KT 10SM CLR 28/20 A3010 RMK AO2 SLP194 T02830198

TAF KFBG 240100Z 2401/2507 21006KT 9999 SCT250 QNH3010INS
  BECMG 2405/2406 23006KT 9999 FEW020 SCT250 510103 QNH3013INS
  BECMG 2413/2414 29010G15KT 9999 FEW060 QNH3010INS
  BECMG 2423/2424 VRB03KT 9999 FEW050 QNH3005INS TX34/2420Z TN21/2411Z


KFAY 240053Z 20006KT 10SM CLR 27/20 A3011 RMK AO2 SLP188 T02720200

KFAY 232320Z 2400/2424 23007KT P6SM FEW250
  FM241200 27010KT P6SM SCT250
  FM241800 30011G18KT P6SM FEW050 SCT250
  FM242100 31009KT P6SM SKC


KRWI 240053Z AUTO 20006KT 10SM CLR 26/20 A3009 RMK AO2 SLP188 T02610200

KRWI 232320Z 2400/2424 23007KT P6SM SCT250
  FM241200 27010KT P6SM SCT250
  FM241800 30011G18KT P6SM FEW050 SCT250
  FM242100 31009KT P6SM SKC


KISO 240056Z 19008KT 10SM CLR 27/20 A3012

KISO 232325Z 2400/2424 24006KT P6SM FEW250
  FM241400 28008G13KT P6SM FEW250 AMD LTD TO CLD VIS AND WIND


KGWW 240125Z AUTO 00000KT 10SM CLR 25/21 A3011 RMK AO2 T02460206


KGSB 240056Z AUTO 20005KT 10SM CLR 27/20 A3009 RMK AO2 SLP192 T02710197 $

TAF KGSB 232000Z 2320/2502 25010G15KT 9999 SCT030 SCT100 QNH3007INS
  BECMG 2323/2324 23006KT 9999 SCT020 QNH3007INS
  BECMG 2403/2404 20009KT 9999 SKC QNH3004INS
  BECMG 2415/2416 30012G18KT 9999 FEW050 QNH2998INS TX34/2419Z TN21/2409Z LAST NO AMDS AFT 2403 NEXT 2820


KDPL 240115Z AUTO 18004KT 10SM SCT048 26/21 A3012 RMK AO2


KCTZ 240110Z AUTO 18004KT 10SM CLR 27/22 A3012 RMK AO2 T02650215


KORF 240051Z 22011KT 10SM CLR 27/19 A3004 RMK AO2 SLP171 T02670194

KORF 232320Z 2400/2424 22010KT P6SM BKN250
  FM241200 28009KT P6SM FEW250
  FM241700 36009KT P6SM SCT050


KLFI 240056Z AUTO 23008KT 10SM CLR 26/21 A3003 RMK AO2 SLP175 T02610213 $

TAF KLFI 240100Z 2401/2507 26012G18KT 9999 SCT100 BKN120 QNH2993INS
  BECMG 2413/2414 33009KT 9999 SCT020 BKN040 QNH3000INS
  BECMG 2420/2421 01006KT 9999 SKC QNH3000INS TX30/2420Z TN23/2408Z


KNTU 240056Z 22011KT 10SM SCT240 BKN300 26/19 A3003 RMK AO2 SLP171 T02610194

TAF KNTU 2323/2423 22010KT 9999 SCT030 SCT300 QNH2998INS
  FM241000 31010KT 9999 FEW050 QNH2998INS
  FM241600 01008KT 9999 BKN040 QNH2996INS T23/2410Z T30/2419Z FN20051


KECG 240054Z 19008KT 10SM CLR 26/20 A3007 RMK AO2 SLP182 T02610200

KECG 232320Z 2400/2424 21010KT P6SM BKN250
  FM241300 27009KT P6SM FEW250
  FM241700 36009KT P6SM SCT050


KEWN 240054Z 20007KT 10SM CLR 23/19 A3013 RMK AO2 SLP204 T02330189

KEWN 232325Z 2400/2424 21007KT P6SM FEW250
  FM241400 29008G13KT P6SM FEW250


KNKT 240054Z 21010KT 10SM CLR 24/18 A3014 RMK AO2 SLP201 T02440183 $

TAF KNKT 2403/2503 21010KT 9999 FEW250 QNH3006INS
  BECMG 2414/2416 30008G15KT QNH2999INS T20/2409Z T33/2418Z


KILM 240053Z 21006KT 10SM CLR 24/18 A3015 RMK AO2 SLP210 T02390183

KILM 232327Z 2400/2424 21009G15KT P6SM FEW250
  FM240500 24007KT P6SM FEW250
  FM241200 27009KT P6SM SKC
  FM241700 29008KT P6SM FEW070


KCAE 240056Z 20003KT 10SM FEW200 29/19 A3012 RMK AO2 SLP197 T02890189

KCAE 232326Z 2400/2424 20003KT P6SM SCT250
  FM241400 27007KT P6SM SCT045


KSSC 240056Z AUTO 19004KT 10SM CLR 28/19 A3012 RMK AO2 SLP199 T02820194 $

TAF KSSC 232300Z 2323/2505 22006KT 9999 FEW050 QNH3013INS
  TEMPO 2409/2411 8000 BR
  BECMG 2413/2414 28010KT 9999 FEW050 QNH3005INS
  BECMG 2500/2501 30006KT 9999 SKC QNH3008INS TX34/2420Z TN21/2411Z


KMMT 240056Z 14004KT 10SM SCT220 27/21 A3013 RMK AO2A SLP204 T02660211 $

TAF KMMT 232300Z 2323/2505 22006KT 9999 FEW050 QNH3013INS
  TEMPO 2409/2411 8000 BR FEW008
  BECMG 2413/2414 28010KT 9999 FEW050 QNH3005INS
  BECMG 2500/2501 30006KT 9999 SKC QNH3008INS TX34/2420Z TN21/2411Z


KMYR 240056Z 20011KT 10SM CLR 24/21 A3017 RMK AO2 SLP214 T02440206

KMYR 232328Z 2400/2424 20011G17KT P6SM FEW250
  FM240500 24007KT P6SM FEW250
  FM241200 26008KT P6SM SKC
  FM242000 23010G17KT P6SM FEW070


KCHS 240056Z 19010KT 10SM BKN250 24/20 A3017 RMK AO2 SLP215 T02440200

KCHS 232320Z 2400/2424 17008KT P6SM FEW250
  FM240900 25004KT P6SM FEW250
  FM241500 27008KT P6SM FEW200


KSAV 240053Z 16007KT 10SM BKN200 25/20 A3018 RMK AO2 SLP218 T02500200

KSAV 232320Z 2400/2424 16008KT P6SM FEW250
  FM240900 24003KT P6SM FEW250
  FM241500 26008KT P6SM FEW200


KSVN 240056Z AUTO 16004KT 10SM CLR 25/20 A3015 RMK AO2 SLP212 T02470199 $

TAF KSVN 232000Z 2320/2502 14010G15KT 9999 FEW040 QNH3016INS
  BECMG 2323/2324 16006KT 9999 SKC QNH3012INS
  BECMG 2415/2416 26009KT 9999 FEW060 QNH3004INS TX33/2419Z TN21/2411Z


KDCA 240052Z 19007KT 10SM FEW075 BKN250 22/20 A2997 RMK AO2 SLP149 T02220200

KDCA 232324Z 2400/2506 18009KT P6SM SCT080 BKN110
  FM240800 30007KT P6SM FEW250
  FM241200 32010G18KT P6SM FEW250
  FM242200 33011KT P6SM FEW250
  FM250200 02005KT P6SM FEW090


KADW 240056Z AUTO 21005KT 10SM CLR 22/20 A2997 RMK AO2 SLP154 T02150196 $

TAF KADW 240100Z 2401/2507 29009KT 9999 BKN030 QNH2988INS
  BECMG 2408/2409 33012G18KT 9999 SCT040 QNH2990INS
  BECMG 2413/2414 33015G25KT 9999 SKC QNH2992INS
  BECMG 2420/2421 33012KT 9999 BKN120 QNH2996INS TX26/2420Z TN18/2411Z